x

Nantucket Sound (44020) Wave Buoy

10:50 - Tue 21st Apr 2015 All times are EDT. -4 hours from GMT.

  • Sig Wave height 1.3ft
  • Swell Direction
  • Peak Period 5s
  • Average Period 4s
  • Wind
    11mph, 13mph gusts
  • Sea Temp 45°f
  • Ar Temp 48°f
  • Sea Pressure 1007.1mb
  • Nantucket Sound
  • Nantucket Sound

More Historic Weather Station data

Upgrade to MSW Pro to gain access to the past 30 days of data for over 8000 Wavebouys and Weather Stations around the globe.

Join Pro

Comparision Forecast

View Surf forecast
   
Ter 04/21 10:50 1.3ft 5s 4s 11 13 mph 1007.1mb 45f 48f
9:50 1.3ft 5s 4s 7 9 mph 1007.1mb 44f 48f
8:50 1.3ft 6s 4s 7
mph
1006.3mb 44f 49f
7:50 1.6ft 4s 4s 7 9 mph 1005.2mb 44f 48f
6:50 2ft 4s 4s 13 16 mph 1003.7mb 44f 49f
5:50 2.5ft 11s 4s 16 18 mph 1002.6mb 44f 49f
4:50 2.5ft 11s 4s 16 18 mph 1002.4mb 45f 49f
3:50 2.5ft 11s 4s 18 20 mph 1001.8mb 45f 49f
2:50 2.5ft 4s 4s 16 20 mph 1001.9mb 46f 47f
1:50 2.5ft 5s 4s 18 22 mph 1002mb 46f 47f
12:50 2.5ft 5s 4s 18 22 mph 1001.9mb 46f 49f
11:50 1.6ft 11s 4s 20 22 mph 1002mb 46f 50f
10:50 1.6ft 5s 4s 16 20 mph 1002.2mb 45f 49f
9:50 1.6ft 5s 3s 9 11 mph 1001.8mb 44f 50f
8:50 1.6ft 6s 3s 13 16 mph 1001.7mb 44f 50f
7:50 2ft 3s 3s 16 18 mph 1002.6mb 43f 51f
6:50 2.5ft 3s 4s 20 22 mph 1002.4mb 43f 52f
5:50 2.5ft 3s 4s 20 25 mph 1002.1mb 43f 53f
4:50 3ft 5s 4s 18 20 mph 1002.2mb 44f 52f
3:50 3.5ft 11s 4s 16 18 mph 1003.1mb 44f 51f
2:50 3.5ft 5s 4s 20 22 mph 1003.9mb 45f 52f
1:50 4ft 5s 4s 20 27 mph 1005.2mb 46f 53f
12:50 4.5ft 5s 4s 22 27 mph 1006mb 46f 50f
Seg 04/20 11:50 4.5ft 5s  -  27 34 mph 1007mb 46f 52f
10:50 5ft 5s 5s 31 38 mph 1007.3mb 45f 52f
9:50 4.5ft 5s 5s 34 40 mph 1007.6mb 44f 51f
8:50 5ft 5s 4s 34 43 mph 1008.7mb 43f 51f
7:50 5ft 5s 4s 34 40 mph 1009.2mb 43f 51f
6:50 4.5ft 4s 4s 31 38 mph 1009.7mb 43f 51f
5:50 5ft 5s 4s 29 36 mph 1010.3mb 43f 50f
4:50 4ft 4s 4s 29 36 mph 1010.9mb 44f 50f
3:50 4ft 4s 4s 29 34 mph 1011.8mb 44f 48f
2:50 4ft 5s 4s 29 34 mph 1013.2mb 45f 47f
1:50 4ft 5s 4s 22 27 mph 1016.1mb 45f 46f
12:50 4.5ft 5s 4s 27 34 mph 1016.7mb 45f 47f
11:50 3.5ft 5s 4s 27 31 mph 1017.8mb 45f 46f
10:50 3ft 5s 4s 25 31 mph 1019.1mb 45f 45f
9:50 2.5ft 5s 4s 25 31 mph 1019.6mb 44f 44f
8:50 2.5ft 4s 4s 20 25 mph 1020.5mb 43f 44f
7:50 1.6ft 4s 3s 20 22 mph 1021.3mb 43f 43f
6:50 1.3ft 3s 3s 16 18 mph 1022.3mb 43f 43f
5:50 1ft 2s 3s 16 18 mph 1022.2mb 43f 42f
4:50 1ft 7s 3s 16 18 mph 1021.8mb 43f 42f
3:50 1ft 2s 3s 11 13 mph 1022.7mb 43f 43f
2:50 1.3ft 2s 3s 13 16 mph 1022.8mb 44f 43f
1:50 1.3ft 3s 3s 13 16 mph 1023.3mb 45f 43f
12:50 1.6ft 3s 3s 13 16 mph 1024mb 45f 43f
Dom 04/19 11:50 1ft 3s 3s 13 16 mph 1024.1mb 45f 43f
10:50 1ft 3s 3s 11 13 mph 1024.8mb 45f 44f
9:50 1.3ft 3s 3s 11 13 mph 1024.8mb 45f 43f
8:50 1ft 3s 3s 13 16 mph 1024.6mb 44f 43f
7:50 1ft 3s 3s 13 16 mph 1024.5mb 44f 43f
6:50 1ft 3s 3s 13 16 mph 1024.6mb 43f 43f
5:50 1.3ft 3s 3s 13 16 mph 1024.4mb 43f 42f
4:50 1.3ft 3s 3s 16 18 mph 1023.9mb 43f 43f
3:50 1ft 3s 3s 13 16 mph 1024.6mb 43f 43f
2:50 1.3ft 4s 3s 18
mph
1024.6mb 44f 43f
1:50 1.3ft 3s 3s 13 16 mph 1025.1mb 45f 44f
12:50 2ft 3s 3s 13 16 mph 1025mb 45f 45f
11:50 2.5ft 4s 3s 16 18 mph 1024.7mb 45f 45f
10:50 2.5ft 4s 4s 16 20 mph 1024.6mb 45f 45f
9:50 2.5ft 4s 4s 18 20 mph 1024.3mb 45f 45f
8:50 1.6ft 3s 3s 20 25 mph 1023.5mb 44f 45f
7:50 1.3ft 3s 3s 18 22 mph 1023mb 44f 45f
6:50 0.7ft  -  3s 16 18 mph 1022.5mb 43f 44f
5:50 0.7ft  -  3s 9 11 mph 1021.8mb 43f 44f
4:50 0.7ft  -  3s 9
mph
1020.7mb 43f 44f
3:50 1ft 3s 3s 7 9 mph 1019.7mb 43f 44f
2:50 1ft 3s 3s 9
mph
1019.1mb 44f 44f
1:50 1ft 3s 3s 9
mph
1019mb 45f 44f
12:50 1ft 7s 4s 9 11 mph 1018.2mb 45f 45f
Sáb 04/18 11:50 1.3ft 7s 4s 11 13 mph 1017.2mb 45f 46f
10:50 1.3ft 3s 3s 2 4 mph 1016.5mb 45f 48f
9:50 1.3ft 3s 3s 9 11 mph 1015.5mb 45f 48f
8:50 1ft 2s 3s 20 25 mph 1014.2mb 45f 50f
7:50 1ft 2s 3s 13 16 mph 1011.3mb 45f 48f
6:50 1.3ft 2s 3s 18 20 mph 1010.4mb 44f 50f
5:50 1ft 2s 3s 13 16 mph 1010.4mb 44f 49f
4:50 1.3ft 3s 3s 18
mph
1010.3mb 44f 51f
3:50 0.7ft  -  3s 13 18 mph 1010.6mb 44f 51f
2:50 0.7ft  -  4s 13 16 mph 1011.2mb 44f 50f
1:50 0.7ft  -  5s 11
mph
1012.2mb 45f 49f
12:50 1ft 11s 4s 4 7 mph 1013.5mb 45f 48f
11:50 1ft 10s 5s 7
mph
1013.9mb 45f 47f
10:50 1ft 9s 5s 7 9 mph 1014mb 45f 47f
9:50 0.7ft  -  4s 7 9 mph 1014.1mb 44f 47f
8:50 0.7ft  -  4s 7
mph
1014mb 44f 47f
7:50 0.7ft  -  3s 9 11 mph 1014.1mb 44f 47f
6:50 0.7ft  -  3s 7 9 mph 1013.7mb 44f 47f
5:50 0.7ft  -  4s 7
mph
1013.3mb 44f 47f
4:50 0.7ft  -  4s 4
mph
1013.2mb 44f 47f